sensor_id;sensor_type;location;lat;lon;timestamp;P1;durP1;ratioP1;P2;durP2;ratioP2
71902;SDS011;59778;50.310;18.780;2022-09-03T00:21:43;8.27;;;1.90;;
71902;SDS011;59778;50.310;18.780;2022-09-03T00:37:09;6.50;;;1.90;;
71902;SDS011;59778;50.310;18.780;2022-09-03T01:08:02;10.37;;;3.30;;
71902;SDS011;59778;50.310;18.780;2022-09-03T01:39:25;11.87;;;3.47;;
71902;SDS011;59778;50.310;18.780;2022-09-03T02:26:14;7.00;;;2.13;;
71902;SDS011;59778;50.310;18.780;2022-09-03T02:41:38;11.60;;;3.43;;
71902;SDS011;59778;50.310;18.780;2022-09-03T02:56:59;10.90;;;4.20;;
71902;SDS011;59778;50.310;18.780;2022-09-03T03:12:20;13.13;;;4.77;;
71902;SDS011;59778;50.310;18.780;2022-09-03T03:27:41;12.30;;;4.07;;
71902;SDS011;59778;50.310;18.780;2022-09-03T03:43:03;10.00;;;2.83;;
71902;SDS011;59778;50.310;18.780;2022-09-03T03:58:24;8.60;;;3.47;;
71902;SDS011;59778;50.310;18.780;2022-09-03T04:13:47;9.90;;;3.53;;
71902;SDS011;59778;50.310;18.780;2022-09-03T04:29:09;9.43;;;2.80;;
71902;SDS011;59778;50.310;18.780;2022-09-03T04:44:30;10.97;;;2.70;;
71902;SDS011;59778;50.310;18.780;2022-09-03T04:59:51;11.63;;;2.97;;
71902;SDS011;59778;50.310;18.780;2022-09-03T05:15:12;10.00;;;3.60;;
71902;SDS011;59778;50.310;18.780;2022-09-03T05:30:34;8.23;;;2.93;;
71902;SDS011;59778;50.310;18.780;2022-09-03T05:46:00;8.37;;;3.17;;
71902;SDS011;59778;50.310;18.780;2022-09-03T06:01:32;10.17;;;3.93;;
71902;SDS011;59778;50.310;18.780;2022-09-03T06:16:55;10.27;;;3.40;;
71902;SDS011;59778;50.310;18.780;2022-09-03T06:32:16;9.27;;;3.20;;
71902;SDS011;59778;50.310;18.780;2022-09-03T06:47:38;8.07;;;3.00;;
71902;SDS011;59778;50.310;18.780;2022-09-03T07:02:59;10.80;;;3.40;;
71902;SDS011;59778;50.310;18.780;2022-09-03T07:18:22;7.63;;;2.67;;
71902;SDS011;59778;50.310;18.780;2022-09-03T07:33:44;8.33;;;2.93;;
71902;SDS011;59778;50.310;18.780;2022-09-03T07:49:06;10.27;;;2.90;;
71902;SDS011;59778;50.310;18.780;2022-09-03T08:04:28;6.57;;;2.60;;
71902;SDS011;59778;50.310;18.780;2022-09-03T08:19:50;11.97;;;3.30;;
71902;SDS011;59778;50.310;18.780;2022-09-03T08:35:11;6.30;;;2.87;;
71902;SDS011;59778;50.310;18.780;2022-09-03T08:50:34;4.40;;;2.20;;
71902;SDS011;59778;50.310;18.780;2022-09-03T09:06:06;6.93;;;2.40;;
71902;SDS011;59778;50.310;18.780;2022-09-03T09:21:41;9.23;;;3.50;;
71902;SDS011;59778;50.310;18.780;2022-09-03T09:37:13;5.77;;;2.80;;
71902;SDS011;59778;50.310;18.780;2022-09-03T09:52:35;6.37;;;2.90;;
71902;SDS011;59778;50.310;18.780;2022-09-03T10:08:00;9.30;;;3.17;;
71902;SDS011;59778;50.310;18.780;2022-09-03T10:23:25;5.50;;;2.73;;
71902;SDS011;59778;50.310;18.780;2022-09-03T10:38:51;5.47;;;3.00;;
71902;SDS011;59778;50.310;18.780;2022-09-03T10:54:25;5.13;;;2.77;;
71902;SDS011;59778;50.310;18.780;2022-09-03T11:10:00;8.33;;;3.00;;
71902;SDS011;59778;50.310;18.780;2022-09-03T11:25:36;6.47;;;2.97;;
71902;SDS011;59778;50.310;18.780;2022-09-03T11:41:13;7.43;;;3.00;;
71902;SDS011;59778;50.310;18.780;2022-09-03T11:56:44;9.10;;;3.60;;
71902;SDS011;59778;50.310;18.780;2022-09-03T12:12:11;17.40;;;3.63;;
71902;SDS011;59778;50.310;18.780;2022-09-03T12:27:47;8.37;;;3.33;;
71902;SDS011;59778;50.310;18.780;2022-09-03T12:43:13;7.67;;;3.77;;
71902;SDS011;59778;50.310;18.780;2022-09-03T12:58:40;8.43;;;4.00;;
71902;SDS011;59778;50.310;18.780;2022-09-03T13:14:13;7.87;;;4.50;;
71902;SDS011;59778;50.310;18.780;2022-09-03T13:45:43;9.33;;;4.53;;
71902;SDS011;59778;50.310;18.780;2022-09-03T14:17:12;7.80;;;3.90;;
71902;SDS011;59778;50.310;18.780;2022-09-03T14:33:04;9.17;;;5.07;;
71902;SDS011;59778;50.310;18.780;2022-09-03T14:48:49;8.77;;;4.30;;
71902;SDS011;59778;50.310;18.780;2022-09-03T15:20:25;8.03;;;3.87;;
71902;SDS011;59778;50.310;18.780;2022-09-03T15:51:29;6.70;;;3.40;;
71902;SDS011;59778;50.310;18.780;2022-09-03T16:22:39;7.47;;;3.30;;
71902;SDS011;59778;50.310;18.780;2022-09-03T16:38:15;7.23;;;3.77;;
71902;SDS011;59778;50.310;18.780;2022-09-03T17:25:25;8.50;;;4.30;;
71902;SDS011;59778;50.310;18.780;2022-09-03T17:41:01;9.50;;;4.70;;
71902;SDS011;59778;50.310;18.780;2022-09-03T17:57:49;8.33;;;5.00;;
71902;SDS011;59778;50.310;18.780;2022-09-03T18:28:34;9.20;;;4.80;;
71902;SDS011;59778;50.310;18.780;2022-09-03T19:00:26;16.37;;;6.77;;
71902;SDS011;59778;50.310;18.780;2022-09-03T20:05:38;13.57;;;6.50;;
71902;SDS011;59778;50.310;18.780;2022-09-03T20:52:39;10.73;;;5.77;;
71902;SDS011;59778;50.310;18.780;2022-09-03T21:24:10;9.37;;;4.93;;
71902;SDS011;59778;50.310;18.780;2022-09-03T21:39:41;11.43;;;5.63;;
71902;SDS011;59778;50.310;18.780;2022-09-03T21:55:17;10.87;;;5.40;;
71902;SDS011;59778;50.310;18.780;2022-09-03T22:26:26;11.60;;;6.10;;
71902;SDS011;59778;50.310;18.780;2022-09-03T22:41:58;11.40;;;5.53;;
71902;SDS011;59778;50.310;18.780;2022-09-03T22:57:41;13.40;;;6.43;;
71902;SDS011;59778;50.310;18.780;2022-09-03T23:13:15;11.47;;;5.67;;
71902;SDS011;59778;50.310;18.780;2022-09-03T23:28:40;13.23;;;4.70;;
71902;SDS011;59778;50.310;18.780;2022-09-03T23:44:21;8.90;;;4.50;;
